Huntsville Regional Airport


Codes: KUTS/HTV
Name: Huntsville Regional Airport
City: Huntsville
Country: United States
Elevation: 363 ft.
Wikipedia:

Photos at Huntsville Regional Airport


   Photos courtesy of SpottingLog. You can add your own sightings and photos by signing up for a free trial today.



No photos found.

Weather at Huntsville Regional Airport


Time (UTC)DescriptionTempratureWindCloud coverageVisibilityPressureHumidity
21-Feb-2024 03:00Clear Sky20°C9 mph, S0%10000m1022hPa60%
21-Feb-2024 06:00Clear Sky18°C9 mph, S1%10000m1022hPa72%
21-Feb-2024 09:00Clear Sky16°C9 mph, S0%10000m1022hPa85%
21-Feb-2024 12:00Clear Sky14°C9 mph, S6%10000m1022hPa98%
21-Feb-2024 15:00Scattered Clouds17°C11 mph, S33%10000m1022hPa86%
21-Feb-2024 18:00Few Clouds23°C13 mph, S22%10000m1020hPa55%
21-Feb-2024 21:00Clear Sky25°C13 mph, S0%10000m1016hPa48%
22-Feb-2024 00:00Clear Sky21°C13 mph, S0%10000m1015hPa65%
22-Feb-2024 03:00Clear Sky18°C13 mph, S3%10000m1014hPa83%
22-Feb-2024 06:00Scattered Clouds18°C16 mph, S39%10000m1014hPa76%
22-Feb-2024 09:00Overcast Clouds19°C13 mph, SW100%10000m1014hPa73%
22-Feb-2024 12:00Overcast Clouds17°C11 mph, SW100%10000m1013hPa82%
22-Feb-2024 15:00Scattered Clouds20°C13 mph, SW35%10000m1012hPa78%
22-Feb-2024 18:00Few Clouds24°C13 mph, SW20%10000m1011hPa60%
22-Feb-2024 21:00Clear Sky26°C11 mph, W0%10000m1008hPa42%
23-Feb-2024 00:00Clear Sky20°C7 mph, NW0%10000m1009hPa49%
23-Feb-2024 03:00Clear Sky17°C7 mph, NW4%10000m1011hPa49%
23-Feb-2024 06:00Clear Sky15°C7 mph, NW4%10000m1012hPa61%
23-Feb-2024 09:00Overcast Clouds14°C9 mph, N100%10000m1013hPa72%
23-Feb-2024 12:00Broken Clouds12°C7 mph, N71%10000m1015hPa73%
23-Feb-2024 15:00Few Clouds15°C9 mph, N20%10000m1018hPa60%
23-Feb-2024 18:00Few Clouds20°C9 mph, N14%10000m1017hPa34%
23-Feb-2024 21:00Clear Sky21°C9 mph, N2%10000m1015hPa28%
24-Feb-2024 00:00Scattered Clouds16°C4 mph, N34%10000m1016hPa47%
24-Feb-2024 03:00Overcast Clouds14°C2 mph, N86%10000m1019hPa49%
24-Feb-2024 06:00Overcast Clouds13°C2 mph, N89%10000m1019hPa52%
24-Feb-2024 09:00Overcast Clouds12°C0 mph, SE100%10000m1019hPa52%
24-Feb-2024 12:00Overcast Clouds12°C2 mph, S100%10000m1020hPa51%
24-Feb-2024 15:00Overcast Clouds16°C2 mph, SW100%10000m1022hPa46%
24-Feb-2024 18:00Broken Clouds22°C4 mph, SW83%10000m1022hPa31%
24-Feb-2024 21:00Clear Sky24°C4 mph, SW0%10000m1019hPa29%
25-Feb-2024 00:00Clear Sky18°C4 mph, SW0%10000m1019hPa50%
25-Feb-2024 03:00Clear Sky15°C7 mph, S1%10000m1020hPa55%
25-Feb-2024 06:00Scattered Clouds14°C7 mph, S32%10000m1020hPa60%
25-Feb-2024 09:00Broken Clouds12°C7 mph, S72%10000m1019hPa66%
25-Feb-2024 12:00Broken Clouds12°C7 mph, S58%10000m1018hPa82%
25-Feb-2024 15:00Clear Sky17°C11 mph, S10%10000m1018hPa70%
25-Feb-2024 18:00Few Clouds23°C16 mph, S23%10000m1017hPa46%
25-Feb-2024 21:00Scattered Clouds24°C16 mph, S43%10000m1014hPa51%
26-Feb-2024 00:00Broken Clouds21°C13 mph, S71%10000m1014hPa66%